sensor_id;sensor_type;location;lat;lon;timestamp;temperature;humidity
20610;DHT22;10463;52.378;9.688;2024-01-11T00:01:44;16.70;17.30
20610;DHT22;10463;52.378;9.688;2024-01-11T00:04:29;16.70;17.30
20610;DHT22;10463;52.378;9.688;2024-01-11T00:07:13;16.70;17.30
20610;DHT22;10463;52.378;9.688;2024-01-11T00:10:00;16.70;17.30
20610;DHT22;10463;52.378;9.688;2024-01-11T00:12:45;16.70;17.30
20610;DHT22;10463;52.378;9.688;2024-01-11T00:15:29;16.70;17.30
20610;DHT22;10463;52.378;9.688;2024-01-11T00:18:14;16.70;17.30
20610;DHT22;10463;52.378;9.688;2024-01-11T00:20:58;16.70;17.30
20610;DHT22;10463;52.378;9.688;2024-01-11T00:23:43;16.70;17.30
20610;DHT22;10463;52.378;9.688;2024-01-11T00:26:29;16.70;17.30
20610;DHT22;10463;52.378;9.688;2024-01-11T00:29:13;16.70;17.30
20610;DHT22;10463;52.378;9.688;2024-01-11T00:31:58;16.70;17.30
20610;DHT22;10463;52.378;9.688;2024-01-11T00:34:42;16.70;17.30
20610;DHT22;10463;52.378;9.688;2024-01-11T00:37:27;16.60;17.20
20610;DHT22;10463;52.378;9.688;2024-01-11T00:40:12;16.60;17.30
20610;DHT22;10463;52.378;9.688;2024-01-11T00:42:58;16.60;17.30
20610;DHT22;10463;52.378;9.688;2024-01-11T00:45:44;16.70;17.30
20610;DHT22;10463;52.378;9.688;2024-01-11T00:48:30;16.60;17.30
20610;DHT22;10463;52.378;9.688;2024-01-11T00:51:15;16.60;17.30
20610;DHT22;10463;52.378;9.688;2024-01-11T00:54:00;16.60;17.30
20610;DHT22;10463;52.378;9.688;2024-01-11T00:56:44;16.60;17.30
20610;DHT22;10463;52.378;9.688;2024-01-11T00:59:30;16.60;17.30
20610;DHT22;10463;52.378;9.688;2024-01-11T01:02:15;16.60;17.30
20610;DHT22;10463;52.378;9.688;2024-01-11T01:04:59;16.60;17.30
20610;DHT22;10463;52.378;9.688;2024-01-11T01:07:44;16.60;17.30
20610;DHT22;10463;52.378;9.688;2024-01-11T01:10:30;16.60;17.30
20610;DHT22;10463;52.378;9.688;2024-01-11T01:13:14;16.60;17.30
20610;DHT22;10463;52.378;9.688;2024-01-11T01:16:00;16.60;17.30
20610;DHT22;10463;52.378;9.688;2024-01-11T01:18:45;16.60;17.30
20610;DHT22;10463;52.378;9.688;2024-01-11T01:21:29;16.60;17.30
20610;DHT22;10463;52.378;9.688;2024-01-11T01:24:14;16.60;17.30
20610;DHT22;10463;52.378;9.688;2024-01-11T01:26:59;16.60;17.30
20610;DHT22;10463;52.378;9.688;2024-01-11T01:29:43;16.60;17.30
20610;DHT22;10463;52.378;9.688;2024-01-11T01:32:29;16.60;17.30
20610;DHT22;10463;52.378;9.688;2024-01-11T01:35:15;16.60;17.30
20610;DHT22;10463;52.378;9.688;2024-01-11T01:37:59;16.60;17.30
20610;DHT22;10463;52.378;9.688;2024-01-11T01:40:44;16.60;17.30
20610;DHT22;10463;52.378;9.688;2024-01-11T01:43:29;16.50;17.20
20610;DHT22;10463;52.378;9.688;2024-01-11T01:46:19;16.60;17.30
20610;DHT22;10463;52.378;9.688;2024-01-11T01:49:05;16.50;17.30
20610;DHT22;10463;52.378;9.688;2024-01-11T01:51:51;16.50;17.20
20610;DHT22;10463;52.378;9.688;2024-01-11T01:54:37;16.50;17.20
20610;DHT22;10463;52.378;9.688;2024-01-11T01:57:21;16.50;17.20
20610;DHT22;10463;52.378;9.688;2024-01-11T02:00:09;16.50;17.30
20610;DHT22;10463;52.378;9.688;2024-01-11T02:02:59;16.50;17.20
20610;DHT22;10463;52.378;9.688;2024-01-11T02:05:44;16.50;17.20
20610;DHT22;10463;52.378;9.688;2024-01-11T02:08:30;16.50;17.20
20610;DHT22;10463;52.378;9.688;2024-01-11T02:11:16;16.50;17.20
20610;DHT22;10463;52.378;9.688;2024-01-11T02:14:01;16.50;17.30
20610;DHT22;10463;52.378;9.688;2024-01-11T02:16:46;16.50;17.20
20610;DHT22;10463;52.378;9.688;2024-01-11T02:19:30;16.50;17.20
20610;DHT22;10463;52.378;9.688;2024-01-11T02:22:21;16.50;17.30
20610;DHT22;10463;52.378;9.688;2024-01-11T02:25:08;16.50;17.20
20610;DHT22;10463;52.378;9.688;2024-01-11T02:27:52;16.50;17.20
20610;DHT22;10463;52.378;9.688;2024-01-11T02:30:37;16.40;17.20
20610;DHT22;10463;52.378;9.688;2024-01-11T02:33:22;16.50;17.30
20610;DHT22;10463;52.378;9.688;2024-01-11T02:36:07;16.50;17.30
20610;DHT22;10463;52.378;9.688;2024-01-11T02:38:52;16.40;17.20
20610;DHT22;10463;52.378;9.688;2024-01-11T02:41:38;16.50;17.20
20610;DHT22;10463;52.378;9.688;2024-01-11T02:44:24;16.50;17.30
20610;DHT22;10463;52.378;9.688;2024-01-11T02:47:09;16.40;17.20
20610;DHT22;10463;52.378;9.688;2024-01-11T02:49:53;16.40;17.20
20610;DHT22;10463;52.378;9.688;2024-01-11T02:52:38;16.40;17.20
20610;DHT22;10463;52.378;9.688;2024-01-11T02:55:22;16.40;17.20
20610;DHT22;10463;52.378;9.688;2024-01-11T02:58:08;16.40;17.20
20610;DHT22;10463;52.378;9.688;2024-01-11T03:00:53;16.40;17.20
20610;DHT22;10463;52.378;9.688;2024-01-11T03:03:38;16.40;17.20
20610;DHT22;10463;52.378;9.688;2024-01-11T03:06:22;16.40;17.70
20610;DHT22;10463;52.378;9.688;2024-01-11T03:09:07;16.40;17.20
20610;DHT22;10463;52.378;9.688;2024-01-11T03:11:51;16.40;17.20
20610;DHT22;10463;52.378;9.688;2024-01-11T03:14:37;16.40;17.20
20610;DHT22;10463;52.378;9.688;2024-01-11T03:17:22;16.40;17.20
20610;DHT22;10463;52.378;9.688;2024-01-11T03:20:08;16.40;17.20
20610;DHT22;10463;52.378;9.688;2024-01-11T03:22:52;16.40;17.20
20610;DHT22;10463;52.378;9.688;2024-01-11T03:25:37;16.40;17.20
20610;DHT22;10463;52.378;9.688;2024-01-11T03:28:21;16.40;17.20
20610;DHT22;10463;52.378;9.688;2024-01-11T03:31:07;16.40;17.20
20610;DHT22;10463;52.378;9.688;2024-01-11T03:33:53;16.40;17.20
20610;DHT22;10463;52.378;9.688;2024-01-11T03:36:37;16.40;17.20
20610;DHT22;10463;52.378;9.688;2024-01-11T03:39:22;16.40;17.20
20610;DHT22;10463;52.378;9.688;2024-01-11T03:42:06;16.40;17.20
20610;DHT22;10463;52.378;9.688;2024-01-11T03:44:51;16.40;17.20
20610;DHT22;10463;52.378;9.688;2024-01-11T03:47:37;16.40;17.20
20610;DHT22;10463;52.378;9.688;2024-01-11T03:50:21;16.30;17.10
20610;DHT22;10463;52.378;9.688;2024-01-11T03:53:06;16.30;17.10
20610;DHT22;10463;52.378;9.688;2024-01-11T03:55:52;16.30;17.10
20610;DHT22;10463;52.378;9.688;2024-01-11T03:58:37;16.30;17.10
20610;DHT22;10463;52.378;9.688;2024-01-11T04:01:23;16.30;17.10
20610;DHT22;10463;52.378;9.688;2024-01-11T04:04:10;16.30;17.10
20610;DHT22;10463;52.378;9.688;2024-01-11T04:06:55;16.30;17.20
20610;DHT22;10463;52.378;9.688;2024-01-11T04:09:40;16.30;17.10
20610;DHT22;10463;52.378;9.688;2024-01-11T04:12:24;16.30;17.10
20610;DHT22;10463;52.378;9.688;2024-01-11T04:15:12;16.30;17.10
20610;DHT22;10463;52.378;9.688;2024-01-11T04:17:57;16.30;17.10
20610;DHT22;10463;52.378;9.688;2024-01-11T04:20:43;16.30;17.10
20610;DHT22;10463;52.378;9.688;2024-01-11T04:23:27;16.30;17.20
20610;DHT22;10463;52.378;9.688;2024-01-11T04:26:12;16.30;17.10
20610;DHT22;10463;52.378;9.688;2024-01-11T04:28:56;16.30;17.10
20610;DHT22;10463;52.378;9.688;2024-01-11T04:31:42;16.30;17.20
20610;DHT22;10463;52.378;9.688;2024-01-11T04:34:26;16.30;17.10
20610;DHT22;10463;52.378;9.688;2024-01-11T04:37:13;16.30;17.20
20610;DHT22;10463;52.378;9.688;2024-01-11T04:39:58;16.20;17.30
20610;DHT22;10463;52.378;9.688;2024-01-11T04:42:44;16.20;17.10
20610;DHT22;10463;52.378;9.688;2024-01-11T04:45:28;16.30;17.20
20610;DHT22;10463;52.378;9.688;2024-01-11T04:48:13;16.20;17.10
20610;DHT22;10463;52.378;9.688;2024-01-11T04:50:58;16.30;17.20
20610;DHT22;10463;52.378;9.688;2024-01-11T04:53:45;16.30;17.20
20610;DHT22;10463;52.378;9.688;2024-01-11T04:56:30;16.30;17.20
20610;DHT22;10463;52.378;9.688;2024-01-11T04:59:15;16.20;17.10
20610;DHT22;10463;52.378;9.688;2024-01-11T05:01:59;16.20;17.10
20610;DHT22;10463;52.378;9.688;2024-01-11T05:04:44;16.20;17.10
20610;DHT22;10463;52.378;9.688;2024-01-11T05:07:28;16.20;17.10
20610;DHT22;10463;52.378;9.688;2024-01-11T05:10:15;16.20;17.20
20610;DHT22;10463;52.378;9.688;2024-01-11T05:12:59;16.20;17.10
20610;DHT22;10463;52.378;9.688;2024-01-11T05:15:44;16.20;17.20
20610;DHT22;10463;52.378;9.688;2024-01-11T05:18:28;16.20;17.10
20610;DHT22;10463;52.378;9.688;2024-01-11T05:21:13;16.20;17.20
20610;DHT22;10463;52.378;9.688;2024-01-11T05:23:57;16.20;17.20
20610;DHT22;10463;52.378;9.688;2024-01-11T05:26:43;16.20;17.20
20610;DHT22;10463;52.378;9.688;2024-01-11T05:29:28;16.20;17.20
20610;DHT22;10463;52.378;9.688;2024-01-11T05:32:12;16.20;17.20
20610;DHT22;10463;52.378;9.688;2024-01-11T05:34:57;16.20;17.70
20610;DHT22;10463;52.378;9.688;2024-01-11T05:37:41;16.20;17.20
20610;DHT22;10463;52.378;9.688;2024-01-11T05:40:26;16.20;17.70
20610;DHT22;10463;52.378;9.688;2024-01-11T05:43:13;16.20;17.20
20610;DHT22;10463;52.378;9.688;2024-01-11T05:45:57;16.20;17.20
20610;DHT22;10463;52.378;9.688;2024-01-11T05:48:42;16.20;17.20
20610;DHT22;10463;52.378;9.688;2024-01-11T05:51:27;16.20;17.20
20610;DHT22;10463;52.378;9.688;2024-01-11T05:54:11;16.10;17.10
20610;DHT22;10463;52.378;9.688;2024-01-11T05:56:56;16.20;17.20
20610;DHT22;10463;52.378;9.688;2024-01-11T05:59:45;16.20;17.20
20610;DHT22;10463;52.378;9.688;2024-01-11T06:02:29;16.10;17.10
20610;DHT22;10463;52.378;9.688;2024-01-11T06:05:16;16.10;17.10
20610;DHT22;10463;52.378;9.688;2024-01-11T06:08:00;16.10;17.10
20610;DHT22;10463;52.378;9.688;2024-01-11T06:10:45;16.10;17.10
20610;DHT22;10463;52.378;9.688;2024-01-11T06:13:29;16.10;17.10
20610;DHT22;10463;52.378;9.688;2024-01-11T06:16:15;16.10;17.10
20610;DHT22;10463;52.378;9.688;2024-01-11T06:19:00;16.10;17.10
20610;DHT22;10463;52.378;9.688;2024-01-11T06:21:44;16.10;17.10
20610;DHT22;10463;52.378;9.688;2024-01-11T06:24:29;16.10;17.10
20610;DHT22;10463;52.378;9.688;2024-01-11T06:27:13;16.10;17.10
20610;DHT22;10463;52.378;9.688;2024-01-11T06:29:58;16.10;17.10
20610;DHT22;10463;52.378;9.688;2024-01-11T06:32:44;16.10;17.10
20610;DHT22;10463;52.378;9.688;2024-01-11T06:35:29;16.10;17.20
20610;DHT22;10463;52.378;9.688;2024-01-11T06:38:15;16.10;17.10
20610;DHT22;10463;52.378;9.688;2024-01-11T06:41:00;16.10;17.70
20610;DHT22;10463;52.378;9.688;2024-01-11T06:43:44;16.10;17.20
20610;DHT22;10463;52.378;9.688;2024-01-11T06:46:29;16.10;17.20
20610;DHT22;10463;52.378;9.688;2024-01-11T06:49:16;16.10;17.20
20610;DHT22;10463;52.378;9.688;2024-01-11T06:52:00;16.10;17.20
20610;DHT22;10463;52.378;9.688;2024-01-11T06:54:45;16.10;17.20
20610;DHT22;10463;52.378;9.688;2024-01-11T06:57:30;16.10;17.20
20610;DHT22;10463;52.378;9.688;2024-01-11T07:00:14;16.10;17.20
20610;DHT22;10463;52.378;9.688;2024-01-11T07:02:59;16.00;17.10
20610;DHT22;10463;52.378;9.688;2024-01-11T07:05:45;16.10;17.20
20610;DHT22;10463;52.378;9.688;2024-01-11T07:08:29;16.10;17.30
20610;DHT22;10463;52.378;9.688;2024-01-11T07:11:14;16.00;17.10
20610;DHT22;10463;52.378;9.688;2024-01-11T07:13:59;16.10;17.20
20610;DHT22;10463;52.378;9.688;2024-01-11T07:16:44;16.00;17.10
20610;DHT22;10463;52.378;9.688;2024-01-11T07:19:29;16.00;17.10
20610;DHT22;10463;52.378;9.688;2024-01-11T07:22:14;16.00;17.20
20610;DHT22;10463;52.378;9.688;2024-01-11T07:24:59;16.00;17.20
20610;DHT22;10463;52.378;9.688;2024-01-11T07:27:44;16.00;17.20
20610;DHT22;10463;52.378;9.688;2024-01-11T07:30:28;16.00;17.20
20610;DHT22;10463;52.378;9.688;2024-01-11T07:33:13;16.00;17.20
20610;DHT22;10463;52.378;9.688;2024-01-11T07:35:58;16.00;17.20
20610;DHT22;10463;52.378;9.688;2024-01-11T07:38:44;16.00;17.30
20610;DHT22;10463;52.378;9.688;2024-01-11T07:41:29;16.00;17.30
20610;DHT22;10463;52.378;9.688;2024-01-11T07:44:13;16.00;17.30
20610;DHT22;10463;52.378;9.688;2024-01-11T07:46:58;16.00;17.30
20610;DHT22;10463;52.378;9.688;2024-01-11T07:49:43;16.00;17.30
20610;DHT22;10463;52.378;9.688;2024-01-11T07:52:27;16.00;17.30
20610;DHT22;10463;52.378;9.688;2024-01-11T07:55:13;16.00;17.30
20610;DHT22;10463;52.378;9.688;2024-01-11T07:57:58;16.00;17.30
20610;DHT22;10463;52.378;9.688;2024-01-11T08:00:50;16.00;17.30
20610;DHT22;10463;52.378;9.688;2024-01-11T08:03:35;16.00;17.30
20610;DHT22;10463;52.378;9.688;2024-01-11T08:06:19;16.00;17.30
20610;DHT22;10463;52.378;9.688;2024-01-11T08:09:04;16.00;17.30
20610;DHT22;10463;52.378;9.688;2024-01-11T08:11:50;16.00;17.30
20610;DHT22;10463;52.378;9.688;2024-01-11T08:14:36;16.00;17.30
20610;DHT22;10463;52.378;9.688;2024-01-11T08:17:21;16.00;17.30
20610;DHT22;10463;52.378;9.688;2024-01-11T08:20:06;16.00;17.30
20610;DHT22;10463;52.378;9.688;2024-01-11T08:22:53;16.00;17.30
20610;DHT22;10463;52.378;9.688;2024-01-11T08:25:37;16.00;17.30
20610;DHT22;10463;52.378;9.688;2024-01-11T08:28:23;16.00;17.30
20610;DHT22;10463;52.378;9.688;2024-01-11T08:31:08;16.00;17.30
20610;DHT22;10463;52.378;9.688;2024-01-11T08:33:53;16.00;17.30
20610;DHT22;10463;52.378;9.688;2024-01-11T08:36:38;16.00;17.30
20610;DHT22;10463;52.378;9.688;2024-01-11T08:39:23;16.00;17.30
20610;DHT22;10463;52.378;9.688;2024-01-11T08:42:07;15.90;17.30
20610;DHT22;10463;52.378;9.688;2024-01-11T08:44:53;16.00;17.30
20610;DHT22;10463;52.378;9.688;2024-01-11T08:47:39;16.00;17.40
20610;DHT22;10463;52.378;9.688;2024-01-11T08:50:25;16.00;17.40
20610;DHT22;10463;52.378;9.688;2024-01-11T08:53:09;16.00;17.40
20610;DHT22;10463;52.378;9.688;2024-01-11T08:55:54;16.00;17.40
20610;DHT22;10463;52.378;9.688;2024-01-11T08:58:40;16.00;17.40
20610;DHT22;10463;52.378;9.688;2024-01-11T09:01:26;16.00;17.40
20610;DHT22;10463;52.378;9.688;2024-01-11T09:04:11;16.00;17.40
20610;DHT22;10463;52.378;9.688;2024-01-11T09:06:55;16.00;17.40
20610;DHT22;10463;52.378;9.688;2024-01-11T09:09:40;16.00;17.40
20610;DHT22;10463;52.378;9.688;2024-01-11T09:12:25;16.00;17.40
20610;DHT22;10463;52.378;9.688;2024-01-11T09:15:09;16.00;17.40
20610;DHT22;10463;52.378;9.688;2024-01-11T09:17:56;16.00;17.40
20610;DHT22;10463;52.378;9.688;2024-01-11T09:20:40;16.00;17.40
20610;DHT22;10463;52.378;9.688;2024-01-11T09:23:25;16.00;17.40
20610;DHT22;10463;52.378;9.688;2024-01-11T09:26:09;16.00;17.40
20610;DHT22;10463;52.378;9.688;2024-01-11T09:28:54;16.00;17.40
20610;DHT22;10463;52.378;9.688;2024-01-11T09:31:38;16.00;17.40
20610;DHT22;10463;52.378;9.688;2024-01-11T09:34:24;16.00;17.40
20610;DHT22;10463;52.378;9.688;2024-01-11T09:37:09;16.00;17.40
20610;DHT22;10463;52.378;9.688;2024-01-11T09:39:54;16.00;17.40
20610;DHT22;10463;52.378;9.688;2024-01-11T09:42:39;16.00;17.40
20610;DHT22;10463;52.378;9.688;2024-01-11T09:45:24;16.00;17.40
20610;DHT22;10463;52.378;9.688;2024-01-11T09:48:10;16.00;17.40
20610;DHT22;10463;52.378;9.688;2024-01-11T09:50:58;16.00;17.40
20610;DHT22;10463;52.378;9.688;2024-01-11T09:53:43;16.00;17.40
20610;DHT22;10463;52.378;9.688;2024-01-11T09:56:28;16.00;17.40
20610;DHT22;10463;52.378;9.688;2024-01-11T09:59:13;16.00;17.40
20610;DHT22;10463;52.378;9.688;2024-01-11T10:01:59;16.00;17.40
20610;DHT22;10463;52.378;9.688;2024-01-11T10:04:45;16.00;17.40
20610;DHT22;10463;52.378;9.688;2024-01-11T10:07:32;16.00;17.40
20610;DHT22;10463;52.378;9.688;2024-01-11T10:10:18;16.00;17.40
20610;DHT22;10463;52.378;9.688;2024-01-11T10:13:05;16.00;17.40
20610;DHT22;10463;52.378;9.688;2024-01-11T10:15:50;16.00;17.40
20610;DHT22;10463;52.378;9.688;2024-01-11T10:18:35;16.00;17.40
20610;DHT22;10463;52.378;9.688;2024-01-11T10:21:19;16.00;17.40
20610;DHT22;10463;52.378;9.688;2024-01-11T10:24:06;16.00;17.40
20610;DHT22;10463;52.378;9.688;2024-01-11T10:26:50;16.00;17.40
20610;DHT22;10463;52.378;9.688;2024-01-11T10:29:35;16.00;17.40
20610;DHT22;10463;52.378;9.688;2024-01-11T10:32:20;16.00;17.40
20610;DHT22;10463;52.378;9.688;2024-01-11T10:35:06;16.00;17.40
20610;DHT22;10463;52.378;9.688;2024-01-11T10:37:51;16.00;17.40
20610;DHT22;10463;52.378;9.688;2024-01-11T10:40:40;16.00;17.40
20610;DHT22;10463;52.378;9.688;2024-01-11T10:43:26;16.00;17.40
20610;DHT22;10463;52.378;9.688;2024-01-11T10:46:12;16.00;17.40
20610;DHT22;10463;52.378;9.688;2024-01-11T10:48:59;16.00;17.40
20610;DHT22;10463;52.378;9.688;2024-01-11T10:51:53;16.00;17.40
20610;DHT22;10463;52.378;9.688;2024-01-11T10:54:42;16.00;17.40
20610;DHT22;10463;52.378;9.688;2024-01-11T10:57:29;16.10;17.50
20610;DHT22;10463;52.378;9.688;2024-01-11T11:00:16;16.00;17.50
20610;DHT22;10463;52.378;9.688;2024-01-11T11:03:01;16.00;17.50
20610;DHT22;10463;52.378;9.688;2024-01-11T11:05:49;16.10;17.50
20610;DHT22;10463;52.378;9.688;2024-01-11T11:08:34;16.10;17.50
20610;DHT22;10463;52.378;9.688;2024-01-11T11:11:22;16.10;17.50
20610;DHT22;10463;52.378;9.688;2024-01-11T11:14:09;16.10;17.50
20610;DHT22;10463;52.378;9.688;2024-01-11T11:16:54;16.10;17.50
20610;DHT22;10463;52.378;9.688;2024-01-11T11:19:39;16.10;17.50
20610;DHT22;10463;52.378;9.688;2024-01-11T11:22:26;16.00;17.50
20610;DHT22;10463;52.378;9.688;2024-01-11T11:25:23;16.00;17.50
20610;DHT22;10463;52.378;9.688;2024-01-11T11:28:11;16.00;17.50
20610;DHT22;10463;52.378;9.688;2024-01-11T11:31:00;16.00;17.50
20610;DHT22;10463;52.378;9.688;2024-01-11T11:33:49;16.10;17.50
20610;DHT22;10463;52.378;9.688;2024-01-11T11:36:34;16.00;17.50
20610;DHT22;10463;52.378;9.688;2024-01-11T11:39:19;16.10;17.50
20610;DHT22;10463;52.378;9.688;2024-01-11T11:42:05;16.10;17.50
20610;DHT22;10463;52.378;9.688;2024-01-11T11:44:50;16.10;17.60
20610;DHT22;10463;52.378;9.688;2024-01-11T11:47:37;16.10;17.60
20610;DHT22;10463;52.378;9.688;2024-01-11T11:50:23;16.10;17.60
20610;DHT22;10463;52.378;9.688;2024-01-11T11:53:11;16.10;17.60
20610;DHT22;10463;52.378;9.688;2024-01-11T11:55:56;16.10;17.60
20610;DHT22;10463;52.378;9.688;2024-01-11T11:58:41;16.10;17.60
20610;DHT22;10463;52.378;9.688;2024-01-11T12:01:26;16.10;18.10
20610;DHT22;10463;52.378;9.688;2024-01-11T12:04:14;16.10;17.60
20610;DHT22;10463;52.378;9.688;2024-01-11T12:06:59;16.10;17.60
20610;DHT22;10463;52.378;9.688;2024-01-11T12:09:44;16.10;17.60
20610;DHT22;10463;52.378;9.688;2024-01-11T12:12:28;16.10;17.60
20610;DHT22;10463;52.378;9.688;2024-01-11T12:15:13;16.10;17.60
20610;DHT22;10463;52.378;9.688;2024-01-11T12:17:58;16.10;17.60
20610;DHT22;10463;52.378;9.688;2024-01-11T12:20:45;16.10;17.60
20610;DHT22;10463;52.378;9.688;2024-01-11T12:23:30;16.10;17.60
20610;DHT22;10463;52.378;9.688;2024-01-11T12:26:15;16.10;17.60
20610;DHT22;10463;52.378;9.688;2024-01-11T12:29:00;16.10;17.60
20610;DHT22;10463;52.378;9.688;2024-01-11T12:31:46;16.10;17.60
20610;DHT22;10463;52.378;9.688;2024-01-11T12:34:30;16.10;17.60
20610;DHT22;10463;52.378;9.688;2024-01-11T12:37:17;16.10;17.60
20610;DHT22;10463;52.378;9.688;2024-01-11T12:40:01;16.10;17.60
20610;DHT22;10463;52.378;9.688;2024-01-11T12:42:46;16.10;17.60
20610;DHT22;10463;52.378;9.688;2024-01-11T12:45:32;16.10;17.60
20610;DHT22;10463;52.378;9.688;2024-01-11T12:48:17;16.10;17.60
20610;DHT22;10463;52.378;9.688;2024-01-11T12:51:04;16.10;17.60
20610;DHT22;10463;52.378;9.688;2024-01-11T12:53:52;16.10;17.60
20610;DHT22;10463;52.378;9.688;2024-01-11T12:56:41;16.10;17.60
20610;DHT22;10463;52.378;9.688;2024-01-11T12:59:26;16.10;17.60
20610;DHT22;10463;52.378;9.688;2024-01-11T13:02:11;16.10;17.70
20610;DHT22;10463;52.378;9.688;2024-01-11T13:04:59;16.10;17.60
20610;DHT22;10463;52.378;9.688;2024-01-11T13:07:46;16.10;17.70
20610;DHT22;10463;52.378;9.688;2024-01-11T13:10:32;16.10;17.60
20610;DHT22;10463;52.378;9.688;2024-01-11T13:13:17;16.10;17.70
20610;DHT22;10463;52.378;9.688;2024-01-11T13:16:01;16.10;17.70
20610;DHT22;10463;52.378;9.688;2024-01-11T13:18:58;16.10;17.70
20610;DHT22;10463;52.378;9.688;2024-01-11T13:21:42;16.10;17.70
20610;DHT22;10463;52.378;9.688;2024-01-11T13:24:27;16.10;17.70
20610;DHT22;10463;52.378;9.688;2024-01-11T13:27:13;16.10;17.70
20610;DHT22;10463;52.378;9.688;2024-01-11T13:29:57;16.10;17.70
20610;DHT22;10463;52.378;9.688;2024-01-11T13:32:43;16.10;17.70
20610;DHT22;10463;52.378;9.688;2024-01-11T13:35:27;16.10;17.70
20610;DHT22;10463;52.378;9.688;2024-01-11T13:38:12;16.10;17.70
20610;DHT22;10463;52.378;9.688;2024-01-11T13:40:57;16.10;17.70
20610;DHT22;10463;52.378;9.688;2024-01-11T13:43:43;16.10;17.70
20610;DHT22;10463;52.378;9.688;2024-01-11T13:46:28;16.10;17.70
20610;DHT22;10463;52.378;9.688;2024-01-11T13:49:13;16.10;17.70
20610;DHT22;10463;52.378;9.688;2024-01-11T13:51:57;16.10;17.70
20610;DHT22;10463;52.378;9.688;2024-01-11T13:54:42;16.20;17.80
20610;DHT22;10463;52.378;9.688;2024-01-11T13:57:28;16.10;17.70
20610;DHT22;10463;52.378;9.688;2024-01-11T14:00:14;16.10;17.70
20610;DHT22;10463;52.378;9.688;2024-01-11T14:02:59;16.10;17.70
20610;DHT22;10463;52.378;9.688;2024-01-11T14:05:43;16.10;17.70
20610;DHT22;10463;52.378;9.688;2024-01-11T14:08:28;16.10;17.70
20610;DHT22;10463;52.378;9.688;2024-01-11T14:11:13;16.20;17.80
20610;DHT22;10463;52.378;9.688;2024-01-11T14:13:57;16.20;17.80
20610;DHT22;10463;52.378;9.688;2024-01-11T14:16:43;16.20;17.80
20610;DHT22;10463;52.378;9.688;2024-01-11T14:19:27;16.20;17.80
20610;DHT22;10463;52.378;9.688;2024-01-11T14:22:12;16.20;17.80
20610;DHT22;10463;52.378;9.688;2024-01-11T14:24:57;16.20;17.80
20610;DHT22;10463;52.378;9.688;2024-01-11T14:27:42;16.20;17.80
20610;DHT22;10463;52.378;9.688;2024-01-11T14:30:28;16.20;17.80
20610;DHT22;10463;52.378;9.688;2024-01-11T14:33:14;16.20;17.80
20610;DHT22;10463;52.378;9.688;2024-01-11T14:35:59;16.20;17.80
20610;DHT22;10463;52.378;9.688;2024-01-11T14:38:44;16.20;17.80
20610;DHT22;10463;52.378;9.688;2024-01-11T14:41:29;16.20;18.40
20610;DHT22;10463;52.378;9.688;2024-01-11T14:44:13;16.20;17.80
20610;DHT22;10463;52.378;9.688;2024-01-11T14:46:58;16.20;17.80
20610;DHT22;10463;52.378;9.688;2024-01-11T14:49:45;16.20;17.80
20610;DHT22;10463;52.378;9.688;2024-01-11T14:52:30;16.20;17.80
20610;DHT22;10463;52.378;9.688;2024-01-11T14:55:17;16.20;17.90
20610;DHT22;10463;52.378;9.688;2024-01-11T14:58:02;16.20;17.80
20610;DHT22;10463;52.378;9.688;2024-01-11T15:00:47;16.20;17.90
20610;DHT22;10463;52.378;9.688;2024-01-11T15:03:31;16.20;17.80
20610;DHT22;10463;52.378;9.688;2024-01-11T15:06:17;16.20;17.90
20610;DHT22;10463;52.378;9.688;2024-01-11T15:09:02;16.20;17.90
20610;DHT22;10463;52.378;9.688;2024-01-11T15:11:47;16.20;17.90
20610;DHT22;10463;52.378;9.688;2024-01-11T15:14:31;16.20;17.90
20610;DHT22;10463;52.378;9.688;2024-01-11T15:17:16;16.20;17.90
20610;DHT22;10463;52.378;9.688;2024-01-11T15:20:01;16.20;17.90
20610;DHT22;10463;52.378;9.688;2024-01-11T15:22:49;16.20;17.90
20610;DHT22;10463;52.378;9.688;2024-01-11T15:25:33;16.20;17.90
20610;DHT22;10463;52.378;9.688;2024-01-11T15:28:18;16.20;17.90
20610;DHT22;10463;52.378;9.688;2024-01-11T15:31:03;16.20;17.90
20610;DHT22;10463;52.378;9.688;2024-01-11T15:33:47;16.20;17.90
20610;DHT22;10463;52.378;9.688;2024-01-11T15:36:32;16.20;17.90
20610;DHT22;10463;52.378;9.688;2024-01-11T15:39:18;16.20;17.90
20610;DHT22;10463;52.378;9.688;2024-01-11T15:42:03;16.20;17.90
20610;DHT22;10463;52.378;9.688;2024-01-11T15:44:47;16.30;17.90
20610;DHT22;10463;52.378;9.688;2024-01-11T15:47:34;16.20;17.90
20610;DHT22;10463;52.378;9.688;2024-01-11T15:50:19;16.30;18.00
20610;DHT22;10463;52.378;9.688;2024-01-11T15:53:04;16.20;17.90
20610;DHT22;10463;52.378;9.688;2024-01-11T15:55:49;16.30;18.00
20610;DHT22;10463;52.378;9.688;2024-01-11T15:58:35;16.20;17.90
20610;DHT22;10463;52.378;9.688;2024-01-11T16:01:19;16.20;17.90
20610;DHT22;10463;52.378;9.688;2024-01-11T16:04:04;16.30;18.00
20610;DHT22;10463;52.378;9.688;2024-01-11T16:06:49;16.20;17.90
20610;DHT22;10463;52.378;9.688;2024-01-11T16:09:33;16.30;18.00
20610;DHT22;10463;52.378;9.688;2024-01-11T16:12:19;16.20;17.90
20610;DHT22;10463;52.378;9.688;2024-01-11T16:15:06;16.20;18.00
20610;DHT22;10463;52.378;9.688;2024-01-11T16:17:51;16.20;17.90
20610;DHT22;10463;52.378;9.688;2024-01-11T16:20:37;16.30;18.00
20610;DHT22;10463;52.378;9.688;2024-01-11T16:23:21;16.30;18.00
20610;DHT22;10463;52.378;9.688;2024-01-11T16:26:07;16.30;18.00
20610;DHT22;10463;52.378;9.688;2024-01-11T16:28:56;16.30;18.00
20610;DHT22;10463;52.378;9.688;2024-01-11T16:31:41;16.30;18.00
20610;DHT22;10463;52.378;9.688;2024-01-11T16:34:26;16.30;18.00
20610;DHT22;10463;52.378;9.688;2024-01-11T16:37:10;16.30;18.00
20610;DHT22;10463;52.378;9.688;2024-01-11T16:39:55;16.30;18.00
20610;DHT22;10463;52.378;9.688;2024-01-11T16:42:40;16.30;18.00
20610;DHT22;10463;52.378;9.688;2024-01-11T16:45:26;16.30;18.00
20610;DHT22;10463;52.378;9.688;2024-01-11T16:48:10;16.30;18.00
20610;DHT22;10463;52.378;9.688;2024-01-11T16:51:02;16.30;18.00
20610;DHT22;10463;52.378;9.688;2024-01-11T16:53:47;16.30;18.00
20610;DHT22;10463;52.378;9.688;2024-01-11T16:56:31;16.30;18.10
20610;DHT22;10463;52.378;9.688;2024-01-11T16:59:16;16.30;18.00
20610;DHT22;10463;52.378;9.688;2024-01-11T17:02:03;16.30;18.60
20610;DHT22;10463;52.378;9.688;2024-01-11T17:04:48;16.30;18.10
20610;DHT22;10463;52.378;9.688;2024-01-11T17:07:33;16.30;18.00
20610;DHT22;10463;52.378;9.688;2024-01-11T17:10:17;16.30;18.00
20610;DHT22;10463;52.378;9.688;2024-01-11T17:13:02;16.30;18.00
20610;DHT22;10463;52.378;9.688;2024-01-11T17:15:46;16.30;18.00
20610;DHT22;10463;52.378;9.688;2024-01-11T17:18:32;16.30;18.00
20610;DHT22;10463;52.378;9.688;2024-01-11T17:21:17;16.30;18.10
20610;DHT22;10463;52.378;9.688;2024-01-11T17:24:02;16.30;18.00